Time;durP1;ratioP1;P1;durP2;ratioP2;P2;SDS_P1;SDS_P2;PMS_P1;PMS_P2;Temp;Humidity;BMP_temperature;BMP_pressure;BME280_temperature;BME280_humidity;BME280_pressure;Samples;Min_cycle;Max_cycle;Signal;HPM_P1;HPM_P2
2021/07/01 00:00:30;;;;;;;18.23;12.27;;;14.30;99.90;;;;;;5025519;28;20020;-63
2021/07/01 00:02:55;;;;;;;18.15;11.80;;;14.20;99.90;;;;;;5028040;28;20037;-60
2021/07/01 00:05:21;;;;;;;18.23;11.98;;;14.30;99.90;;;;;;5027424;28;20506;-63
2021/07/01 00:07:48;;;;;;;17.33;12.02;;;14.30;99.90;;;;;;5011126;28;20037;-63
2021/07/01 00:10:17;;;;;;;20.70;13.05;;;14.30;99.90;;;;;;5030275;28;20120;-64
2021/07/01 00:12:43;;;;;;;21.42;11.48;;;14.30;99.90;;;;;;5023361;28;20463;-63
2021/07/01 00:15:13;;;;;;;13.88;9.30;;;14.30;99.90;;;;;;5029975;28;20240;-63
2021/07/01 00:17:40;;;;;;;16.50;9.98;;;14.30;99.90;;;;;;5028969;28;20029;-63
2021/07/01 00:20:07;;;;;;;10.52;7.18;;;14.30;99.90;;;;;;5021034;28;20030;-62
2021/07/01 00:22:33;;;;;;;10.18;7.25;;;14.20;99.90;;;;;;5027057;28;20029;-63
2021/07/01 00:24:58;;;;;;;12.00;8.35;;;14.20;99.90;;;;;;5030126;28;20394;-64
2021/07/01 00:27:24;;;;;;;14.75;8.95;;;14.20;99.90;;;;;;5027272;28;20116;-64
2021/07/01 00:29:49;;;;;;;15.57;9.52;;;14.20;99.90;;;;;;5028456;28;20514;-63
2021/07/01 00:32:15;;;;;;;17.67;10.88;;;14.10;99.90;;;;;;5028879;28;20025;-64
2021/07/01 00:34:40;;;;;;;18.92;13.10;;;14.10;99.90;;;;;;5025319;28;20059;-63
2021/07/01 00:37:06;;;;;;;18.20;12.57;;;14.10;99.90;;;;;;5028560;28;20022;-65
2021/07/01 00:39:32;;;;;;;20.50;11.82;;;14.10;99.90;;;;;;5021373;28;20065;-61
2021/07/01 00:41:57;;;;;;;23.13;13.13;;;14.10;99.90;;;;;;5028354;28;20083;-63
2021/07/01 00:44:23;;;;;;;18.98;12.32;;;14.10;99.90;;;;;;5028807;28;20033;-63
2021/07/01 00:46:48;;;;;;;21.50;14.00;;;14.10;99.90;;;;;;5028683;28;20033;-63
2021/07/01 00:49:14;;;;;;;21.65;14.57;;;14.00;99.90;;;;;;5021959;28;20041;-64
2021/07/01 00:51:40;;;;;;;21.88;14.60;;;14.00;99.90;;;;;;5026743;28;20025;-63
2021/07/01 00:54:06;;;;;;;20.60;15.00;;;14.00;99.90;;;;;;5028986;28;20033;-63
2021/07/01 00:56:37;;;;;;;28.35;16.52;;;14.00;99.90;;;;;;5030304;28;20025;-63
2021/07/01 00:59:03;;;;;;;23.65;15.98;;;14.00;99.90;;;;;;5025317;28;20017;-63
2021/07/01 01:01:29;;;;;;;25.55;16.08;;;14.00;99.90;;;;;;5025883;28;20035;-63
2021/07/01 01:03:55;;;;;;;23.30;15.82;;;14.00;99.90;;;;;;5012361;28;20021;-63
2021/07/01 01:06:20;;;;;;;26.98;16.13;;;14.00;99.90;;;;;;5028485;28;20048;-63
2021/07/01 01:08:46;;;;;;;24.20;16.05;;;14.00;99.90;;;;;;5024111;28;20037;-62
2021/07/01 01:11:12;;;;;;;25.17;15.80;;;14.00;99.90;;;;;;5028168;28;20030;-63
2021/07/01 01:13:37;;;;;;;24.75;15.57;;;13.90;99.90;;;;;;5028987;28;20037;-64
2021/07/01 01:16:04;;;;;;;20.60;14.52;;;13.90;99.90;;;;;;5028565;28;20023;-58
2021/07/01 01:18:30;;;;;;;23.15;13.63;;;13.90;99.90;;;;;;5025870;28;21867;-63
2021/07/01 01:20:58;;;;;;;19.60;13.20;;;13.90;99.90;;;;;;5024338;28;20026;-63
2021/07/01 01:23:25;;;;;;;20.98;13.68;;;13.90;99.90;;;;;;5024570;28;20049;-62
2021/07/01 01:25:59;;;;;;;20.38;15.05;;;13.90;99.90;;;;;;5029742;28;20074;-63
2021/07/01 01:28:26;;;;;;;22.15;13.95;;;13.90;99.90;;;;;;5025007;28;20025;-64
2021/07/01 01:30:51;;;;;;;21.10;13.60;;;13.90;99.90;;;;;;5028107;28;20485;-63
2021/07/01 01:33:17;;;;;;;22.92;14.25;;;13.90;99.90;;;;;;5023281;28;20115;-62
2021/07/01 01:35:43;;;;;;;22.52;12.77;;;13.90;99.90;;;;;;5026868;28;20022;-63
2021/07/01 01:38:11;;;;;;;16.88;11.40;;;13.80;99.90;;;;;;5021791;28;20363;-64
2021/07/01 01:40:37;;;;;;;17.65;11.60;;;13.90;99.90;;;;;;5023120;28;20026;-64
2021/07/01 01:43:03;;;;;;;14.88;10.52;;;13.90;99.90;;;;;;5026872;28;20036;-63
2021/07/01 01:45:29;;;;;;;15.52;10.50;;;13.90;99.90;;;;;;5025517;28;20030;-63
2021/07/01 01:47:55;;;;;;;16.10;11.75;;;13.80;99.90;;;;;;5022759;28;20029;-63
2021/07/01 01:50:23;;;;;;;16.95;11.27;;;13.80;99.90;;;;;;5025165;28;20045;-62
2021/07/01 01:52:50;;;;;;;18.17;12.25;;;13.70;99.90;;;;;;5028706;28;20033;-62
2021/07/01 01:55:16;;;;;;;17.45;11.48;;;13.70;99.90;;;;;;5031116;28;20053;-64
2021/07/01 01:57:44;;;;;;;16.38;11.18;;;13.70;99.90;;;;;;5021902;28;20510;-63
2021/07/01 02:00:12;;;;;;;14.75;9.75;;;13.70;99.90;;;;;;5020461;28;20083;-62
2021/07/01 02:02:39;;;;;;;14.50;9.57;;;13.70;99.90;;;;;;5023418;28;20112;-62
2021/07/01 02:05:09;;;;;;;12.27;8.90;;;13.70;99.90;;;;;;5015912;28;20030;-63
2021/07/01 02:07:35;;;;;;;16.23;8.50;;;13.70;99.90;;;;;;5018944;28;20049;-63
2021/07/01 02:10:08;;;;;;;15.45;9.18;;;13.70;99.90;;;;;;5019338;28;20887;-63
2021/07/01 02:12:34;;;;;;;17.35;9.15;;;13.60;99.90;;;;;;5017170;28;20143;-63
2021/07/01 02:14:59;;;;;;;14.98;9.63;;;13.60;99.90;;;;;;5020022;28;20094;-62
2021/07/01 02:17:25;;;;;;;14.20;9.00;;;13.60;99.90;;;;;;5017145;28;20421;-60
2021/07/01 02:19:51;;;;;;;12.20;7.57;;;13.60;99.90;;;;;;5012884;28;20056;-63
2021/07/01 02:22:17;;;;;;;10.13;7.32;;;13.50;99.90;;;;;;5019397;28;20099;-65
2021/07/01 02:24:43;;;;;;;12.57;7.68;;;13.50;99.90;;;;;;5014811;28;20103;-64
2021/07/01 02:27:09;;;;;;;12.82;7.32;;;13.50;99.90;;;;;;5019409;28;20120;-63
2021/07/01 02:29:35;;;;;;;12.18;7.88;;;13.50;99.90;;;;;;5023098;28;20072;-62
2021/07/01 02:32:01;;;;;;;13.40;9.52;;;13.50;99.90;;;;;;5020930;28;20029;-63
2021/07/01 02:34:27;;;;;;;22.80;12.18;;;13.50;99.90;;;;;;5022278;28;20750;-63
2021/07/01 02:36:52;;;;;;;14.02;10.38;;;13.50;99.90;;;;;;5017065;28;20026;-63
2021/07/01 02:39:18;;;;;;;17.67;11.05;;;13.40;99.90;;;;;;5028673;28;20025;-64
2021/07/01 02:41:43;;;;;;;20.20;11.32;;;13.40;99.90;;;;;;5025517;28;20033;-63
2021/07/01 02:44:09;;;;;;;27.52;12.27;;;13.50;99.90;;;;;;5020782;28;20033;-62
2021/07/01 02:46:34;;;;;;;17.73;10.70;;;13.50;99.90;;;;;;5003554;28;20041;-62
2021/07/01 02:49:00;;;;;;;21.40;12.50;;;13.50;99.90;;;;;;5020291;28;20079;-63
2021/07/01 02:51:26;;;;;;;20.58;11.52;;;13.50;99.90;;;;;;5025817;28;20022;-61
2021/07/01 02:53:51;;;;;;;18.75;11.70;;;13.50;99.90;;;;;;5016430;28;20065;-62
2021/07/01 02:56:18;;;;;;;23.27;11.77;;;13.50;99.90;;;;;;5023167;28;20406;-64
2021/07/01 02:58:43;;;;;;;21.20;12.20;;;13.40;99.90;;;;;;5021677;28;21354;-62
2021/07/01 03:01:09;;;;;;;17.67;12.90;;;13.50;99.90;;;;;;5022110;28;20037;-64
2021/07/01 03:03:34;;;;;;;21.73;11.55;;;13.50;99.90;;;;;;5019420;28;20131;-63
2021/07/01 03:06:01;;;;;;;24.75;12.68;;;13.50;99.90;;;;;;5024251;28;20025;-63
2021/07/01 03:08:27;;;;;;;18.17;12.93;;;13.50;99.90;;;;;;5002019;28;20490;-63
2021/07/01 03:10:52;;;;;;;19.83;12.00;;;13.50;99.90;;;;;;5020681;28;20029;-62
2021/07/01 03:13:18;;;;;;;21.33;12.57;;;13.50;99.90;;;;;;5021500;28;20026;-62
2021/07/01 03:15:43;;;;;;;18.00;12.57;;;13.50;99.90;;;;;;5020430;28;20450;-63
2021/07/01 03:18:09;;;;;;;20.48;12.30;;;13.50;99.90;;;;;;5004617;28;20382;-64
2021/07/01 03:20:35;;;;;;;19.17;11.85;;;13.50;99.90;;;;;;5020877;28;20065;-64
2021/07/01 03:23:02;;;;;;;22.88;14.38;;;13.60;99.90;;;;;;5019638;28;20026;-64
2021/07/01 03:25:28;;;;;;;26.83;14.85;;;13.60;99.90;;;;;;5028904;28;20120;-63
2021/07/01 03:27:54;;;;;;;21.92;15.40;;;13.60;99.90;;;;;;5029017;28;20029;-64
2021/07/01 03:30:20;;;;;;;25.25;17.17;;;13.50;99.90;;;;;;5030154;28;20041;-63
2021/07/01 03:32:45;;;;;;;23.83;17.10;;;13.50;99.90;;;;;;5030113;28;20050;-64
2021/07/01 03:35:11;;;;;;;23.48;17.02;;;13.50;99.90;;;;;;5031341;28;20021;-64
2021/07/01 03:37:37;;;;;;;24.27;18.05;;;13.50;99.90;;;;;;5022816;28;20582;-64
2021/07/01 03:40:04;;;;;;;26.48;16.77;;;13.50;99.90;;;;;;5032684;28;20037;-62
2021/07/01 03:42:29;;;;;;;29.80;17.17;;;13.50;99.90;;;;;;5032436;28;20087;-64
2021/07/01 03:44:55;;;;;;;21.80;16.52;;;13.50;99.90;;;;;;5029760;28;20108;-62
2021/07/01 03:47:20;;;;;;;20.40;16.77;;;13.50;99.90;;;;;;5029037;28;20037;-62
2021/07/01 03:49:46;;;;;;;26.75;16.73;;;13.50;99.90;;;;;;5031975;28;20505;-65
2021/07/01 03:52:12;;;;;;;24.50;16.95;;;13.60;99.90;;;;;;5027255;28;20029;-63
2021/07/01 03:54:37;;;;;;;24.33;17.15;;;13.60;99.90;;;;;;5033012;28;20037;-64
2021/07/01 03:57:03;;;;;;;23.65;17.40;;;13.60;99.90;;;;;;5024878;28;20028;-64
2021/07/01 03:59:29;;;;;;;22.58;16.23;;;13.60;99.90;;;;;;5032253;28;20113;-64
2021/07/01 04:01:55;;;;;;;26.33;16.35;;;13.60;99.90;;;;;;5034829;28;20104;-65
2021/07/01 04:04:20;;;;;;;21.00;15.35;;;13.60;99.90;;;;;;5028413;28;20102;-64
2021/07/01 04:06:46;;;;;;;26.33;15.85;;;13.60;99.90;;;;;;5031514;28;20037;-64
2021/07/01 04:09:12;;;;;;;24.38;14.98;;;13.60;99.90;;;;;;5006480;28;20146;-64
2021/07/01 04:11:38;;;;;;;27.25;16.65;;;13.50;99.90;;;;;;5027791;28;20025;-63
2021/07/01 04:14:04;;;;;;;26.25;16.20;;;13.60;99.90;;;;;;5037705;28;20112;-65
2021/07/01 04:16:30;;;;;;;23.48;16.15;;;13.60;99.90;;;;;;5035102;28;20030;-65
2021/07/01 04:18:56;;;;;;;20.13;15.45;;;13.60;99.90;;;;;;5034508;28;20096;-64
2021/07/01 04:21:27;;;;;;;24.55;15.38;;;13.60;99.90;;;;;;5035028;28;20129;-64
2021/07/01 04:23:56;;;;;;;22.77;15.43;;;13.70;99.90;;;;;;5031513;28;20074;-64
2021/07/01 04:26:22;;;;;;;30.00;17.63;;;13.70;99.90;;;;;;5024922;28;20117;-64
2021/07/01 04:28:49;;;;;;;23.42;16.42;;;13.70;99.90;;;;;;5027284;28;20483;-63
2021/07/01 04:31:16;;;;;;;21.40;16.52;;;13.70;99.90;;;;;;5030025;28;20029;-65
2021/07/01 04:33:42;;;;;;;22.13;15.55;;;13.70;99.90;;;;;;5025390;28;20912;-64
2021/07/01 04:36:08;;;;;;;24.63;16.55;;;13.70;99.90;;;;;;5030903;28;20041;-64
2021/07/01 04:38:33;;;;;;;19.55;15.02;;;13.70;99.90;;;;;;5024310;28;20029;-64
2021/07/01 04:40:59;;;;;;;23.02;16.05;;;13.80;99.90;;;;;;5030479;28;20033;-64
2021/07/01 04:43:24;;;;;;;24.38;15.43;;;13.70;99.90;;;;;;5025785;28;20064;-64
2021/07/01 04:45:50;;;;;;;21.48;14.15;;;13.80;99.90;;;;;;5027035;28;20068;-64
2021/07/01 04:48:16;;;;;;;27.02;15.50;;;13.80;99.90;;;;;;5020583;28;20092;-62
2021/07/01 04:50:41;;;;;;;22.10;13.13;;;13.80;99.90;;;;;;5029615;28;20057;-64
2021/07/01 04:53:07;;;;;;;21.35;14.07;;;13.90;99.90;;;;;;5033187;28;20100;-65
2021/07/01 04:55:32;;;;;;;23.98;13.75;;;13.90;99.90;;;;;;5034602;28;20063;-63
2021/07/01 04:57:58;;;;;;;24.02;15.38;;;13.80;99.90;;;;;;5030602;28;20354;-63
2021/07/01 05:00:23;;;;;;;24.40;14.90;;;13.90;99.90;;;;;;5037025;28;20055;-63
2021/07/01 05:02:49;;;;;;;24.85;15.10;;;13.90;99.90;;;;;;5023846;28;20033;-64
2021/07/01 05:05:14;;;;;;;23.40;14.82;;;13.90;99.90;;;;;;5029338;28;20513;-64
2021/07/01 05:07:45;;;;;;;22.42;15.40;;;13.80;99.90;;;;;;5027216;28;20033;-63
2021/07/01 05:10:13;;;;;;;24.48;15.75;;;13.80;99.90;;;;;;5025192;28;20490;-64
2021/07/01 05:12:38;;;;;;;25.15;17.85;;;13.80;99.90;;;;;;5033815;28;20041;-64
2021/07/01 05:15:05;;;;;;;27.25;16.98;;;13.80;99.90;;;;;;5029907;28;20048;-64
2021/07/01 05:17:31;;;;;;;24.80;16.52;;;13.80;99.90;;;;;;5029392;28;20494;-60
2021/07/01 05:19:56;;;;;;;25.70;17.20;;;13.70;99.90;;;;;;5030975;28;20033;-63
2021/07/01 05:22:22;;;;;;;27.40;17.85;;;13.80;99.90;;;;;;5026292;28;20040;-65
2021/07/01 05:24:48;;;;;;;25.92;17.25;;;13.70;99.90;;;;;;5027639;28;20036;-64
2021/07/01 05:27:14;;;;;;;26.58;17.20;;;13.70;99.90;;;;;;5029117;28;20116;-64
2021/07/01 05:29:39;;;;;;;25.23;16.13;;;13.60;99.90;;;;;;5024817;28;20036;-64
2021/07/01 05:32:05;;;;;;;29.42;16.60;;;13.60;99.90;;;;;;5027458;28;20706;-63
2021/07/01 05:34:31;;;;;;;23.73;15.93;;;13.60;99.90;;;;;;5029377;28;20052;-64
2021/07/01 05:36:56;;;;;;;28.15;15.73;;;13.60;99.90;;;;;;5027315;28;20144;-63
2021/07/01 05:39:22;;;;;;;25.70;15.63;;;13.60;99.90;;;;;;5027155;28;20030;-64
2021/07/01 05:41:47;;;;;;;23.15;15.88;;;13.60;99.90;;;;;;5030342;28;20041;-64
2021/07/01 05:44:13;;;;;;;25.63;17.30;;;13.70;99.90;;;;;;5026345;28;20029;-64
2021/07/01 05:46:38;;;;;;;28.38;17.08;;;13.70;99.90;;;;;;5009059;28;20037;-63
2021/07/01 05:49:04;;;;;;;24.38;16.30;;;13.70;99.90;;;;;;5027138;28;20029;-62
2021/07/01 05:51:32;;;;;;;29.52;16.77;;;13.80;99.90;;;;;;5033849;28;20040;-62
2021/07/01 05:56:26;;;;;;;29.50;17.35;;;13.90;99.90;;;;;;5027517;28;20561;-65
2021/07/01 05:58:53;;;;;;;27.88;17.25;;;14.00;99.90;;;;;;5010412;28;20030;-63
2021/07/01 06:01:19;;;;;;;27.40;15.93;;;14.20;99.90;;;;;;5031375;28;20469;-64
2021/07/01 06:03:44;;;;;;;27.90;16.30;;;14.30;99.90;;;;;;5024800;28;20113;-63
2021/07/01 06:06:12;;;;;;;30.52;15.68;;;14.40;99.90;;;;;;5032445;28;20109;-64
2021/07/01 06:08:39;;;;;;;31.27;18.10;;;14.30;99.90;;;;;;5031196;28;20021;-64
2021/07/01 06:11:06;;;;;;;28.80;16.08;;;14.40;99.90;;;;;;5029336;28;20426;-64
2021/07/01 06:13:37;;;;;;;28.95;16.90;;;14.50;99.90;;;;;;5014856;28;20083;-61
2021/07/01 06:16:03;;;;;;;24.15;15.32;;;14.50;99.90;;;;;;5038412;28;20021;-62
2021/07/01 06:18:30;;;;;;;25.15;16.40;;;14.60;99.90;;;;;;5032563;28;20116;-64
2021/07/01 06:20:56;;;;;;;26.23;17.10;;;14.50;99.90;;;;;;5035674;28;20558;-63
2021/07/01 06:23:21;;;;;;;32.67;18.27;;;14.40;99.90;;;;;;5028056;28;20120;-63
2021/07/01 06:25:49;;;;;;;36.80;19.05;;;14.30;99.90;;;;;;5033333;28;20064;-63
2021/07/01 06:28:14;;;;;;;28.10;17.60;;;14.30;99.90;;;;;;5027946;28;20022;-63
2021/07/01 06:30:42;;;;;;;31.52;17.77;;;14.20;99.90;;;;;;5029548;28;20398;-64
2021/07/01 06:33:10;;;;;;;31.52;16.25;;;14.20;99.90;;;;;;5025134;28;20044;-63
2021/07/01 06:35:36;;;;;;;25.73;14.65;;;14.10;99.90;;;;;;5028725;28;20017;-63
2021/07/01 06:38:08;;;;;;;25.83;15.48;;;14.00;99.90;;;;;;5029039;28;20040;-64
2021/07/01 06:40:34;;;;;;;29.58;15.70;;;14.00;99.90;;;;;;5029748;28;20518;-64
2021/07/01 06:43:02;;;;;;;33.33;14.98;;;14.00;99.90;;;;;;5030154;28;20032;-63
2021/07/01 06:45:28;;;;;;;25.25;13.65;;;14.00;99.90;;;;;;5022111;28;20021;-64
2021/07/01 06:47:55;;;;;;;29.50;13.90;;;13.90;99.90;;;;;;5029362;28;20030;-64
2021/07/01 06:50:23;;;;;;;26.13;13.60;;;13.90;99.90;;;;;;5030884;28;20026;-64
2021/07/01 06:52:51;;;;;;;23.48;13.00;;;13.90;99.90;;;;;;5025960;28;20029;-64
2021/07/01 06:55:17;;;;;;;29.73;14.50;;;13.90;99.90;;;;;;5030593;28;20402;-64
2021/07/01 06:57:44;;;;;;;29.27;14.65;;;14.00;99.90;;;;;;5029911;28;20025;-62
2021/07/01 07:00:12;;;;;;;27.48;14.60;;;14.10;99.90;;;;;;5029555;28;20041;-64
2021/07/01 07:02:38;;;;;;;25.33;13.40;;;14.10;99.90;;;;;;5032034;28;20036;-63
2021/07/01 07:05:07;;;;;;;25.02;15.52;;;14.10;99.90;;;;;;5028063;28;20525;-63
2021/07/01 07:07:33;;;;;;;23.05;14.52;;;14.10;99.90;;;;;;5030473;28;20041;-59
2021/07/01 07:10:03;;;;;;;21.85;14.38;;;14.10;99.90;;;;;;5027823;28;20056;-64
2021/07/01 07:12:29;;;;;;;20.20;12.20;;;14.20;99.90;;;;;;5030672;28;20061;-63
2021/07/01 07:14:55;;;;;;;23.25;13.18;;;14.20;99.90;;;;;;5029449;28;20035;-62
2021/07/01 07:17:28;;;;;;;21.77;12.45;;;14.20;99.90;;;;;;5022008;28;21699;-62
2021/07/01 07:19:57;;;;;;;25.38;13.23;;;14.20;99.90;;;;;;5028621;28;20033;-63
2021/07/01 07:22:26;;;;;;;25.67;12.45;;;14.20;99.90;;;;;;5025330;28;22032;-64
2021/07/01 07:24:55;;;;;;;21.33;11.25;;;14.10;99.90;;;;;;5033770;28;20037;-63
2021/07/01 07:27:30;;;;;;;24.88;12.82;;;14.10;99.90;;;;;;5024102;28;20057;-61
2021/07/01 07:29:57;;;;;;;24.15;13.63;;;14.00;99.90;;;;;;5029987;28;20490;-64
2021/07/01 07:32:24;;;;;;;25.45;13.43;;;13.90;99.90;;;;;;5028976;28;20394;-62
2021/07/01 07:34:50;;;;;;;26.52;15.32;;;14.00;99.90;;;;;;5026212;28;20032;-63
2021/07/01 07:37:16;;;;;;;26.88;15.00;;;14.00;99.90;;;;;;5031766;28;20553;-63
2021/07/01 07:39:43;;;;;;;27.42;14.52;;;14.00;99.90;;;;;;5025658;28;20038;-63
2021/07/01 07:42:09;;;;;;;28.63;14.73;;;13.90;99.90;;;;;;5028084;28;20025;-63
2021/07/01 07:44:36;;;;;;;24.75;15.18;;;13.90;99.90;;;;;;5037713;28;20434;-63
2021/07/01 07:47:02;;;;;;;23.48;12.57;;;13.80;99.90;;;;;;5023870;28;20021;-62
2021/07/01 07:49:28;;;;;;;23.40;11.73;;;13.80;99.90;;;;;;5017037;28;20030;-63
2021/07/01 07:51:55;;;;;;;18.45;9.57;;;13.80;99.90;;;;;;5021414;28;20109;-63
2021/07/01 07:54:25;;;;;;;19.33;10.30;;;13.80;99.90;;;;;;5021220;28;20109;-64
2021/07/01 07:56:55;;;;;;;20.08;11.02;;;13.70;99.90;;;;;;5024195;28;20049;-63
2021/07/01 07:59:23;;;;;;;20.23;11.13;;;13.80;99.90;;;;;;5026193;28;20092;-63
2021/07/01 08:01:49;;;;;;;26.13;11.15;;;13.80;99.90;;;;;;5028498;28;20029;-64
2021/07/01 08:04:17;;;;;;;16.88;9.35;;;13.80;99.90;;;;;;5025765;28;20412;-63
2021/07/01 08:06:46;;;;;;;22.52;10.45;;;13.80;99.90;;;;;;5028817;28;20026;-64
2021/07/01 08:09:13;;;;;;;26.90;11.10;;;13.80;99.90;;;;;;5029176;28;20047;-64
2021/07/01 08:11:41;;;;;;;21.38;10.80;;;13.80;99.90;;;;;;5031273;28;20428;-63
2021/07/01 08:14:08;;;;;;;25.60;10.75;;;13.80;99.90;;;;;;5029863;28;20501;-65
2021/07/01 08:16:34;;;;;;;22.83;11.10;;;13.80;99.90;;;;;;5029331;28;20402;-64
2021/07/01 08:19:00;;;;;;;25.48;12.00;;;13.70;99.90;;;;;;4992468;28;20080;-64
2021/07/01 08:21:27;;;;;;;18.08;10.30;;;13.70;99.90;;;;;;5035415;28;20065;-65
2021/07/01 08:23:53;;;;;;;24.52;10.15;;;13.70;99.90;;;;;;5031523;28;20025;-65
2021/07/01 08:26:19;;;;;;;20.65;9.82;;;13.80;99.90;;;;;;5025552;28;20041;-65
2021/07/01 08:28:45;;;;;;;19.63;8.60;;;14.10;99.90;;;;;;5021843;28;20509;-65
2021/07/01 08:31:16;;;;;;;20.10;9.52;;;14.40;99.90;;;;;;5028108;28;20033;-65
2021/07/01 08:33:45;;;;;;;18.90;8.90;;;14.50;99.90;;;;;;5037818;28;20014;-65
2021/07/01 08:36:16;;;;;;;18.83;8.35;;;14.80;99.90;;;;;;5024584;28;20386;-65
2021/07/01 08:38:43;;;;;;;14.25;8.27;;;14.80;99.90;;;;;;5026817;28;20058;-65
2021/07/01 08:41:20;;;;;;;22.65;8.95;;;14.80;99.90;;;;;;5022323;28;20394;-65
2021/07/01 08:43:49;;;;;;;26.77;10.10;;;14.70;99.90;;;;;;5016865;28;20025;-64
2021/07/01 08:46:20;;;;;;;21.90;10.43;;;14.60;99.90;;;;;;5029175;28;20551;-64
2021/07/01 08:48:57;;;;;;;19.75;8.55;;;14.70;99.90;;;;;;5034521;28;20379;-61
2021/07/01 08:51:28;;;;;;;24.55;9.02;;;15.00;99.90;;;;;;5012052;28;20056;-65
2021/07/01 08:54:12;;;;;;;18.27;8.90;;;15.10;99.90;;;;;;5033244;28;20021;-64
2021/07/01 08:56:38;;;;;;;16.40;7.35;;;15.20;99.90;;;;;;5024741;28;20052;-63
2021/07/01 08:59:06;;;;;;;20.77;7.30;;;15.40;99.90;;;;;;5030428;28;20069;-64
2021/07/01 09:01:31;;;;;;;20.05;8.63;;;15.50;99.90;;;;;;5030349;28;20029;-60
2021/07/01 09:03:58;;;;;;;15.82;7.25;;;15.60;99.90;;;;;;5018470;28;20087;-65
2021/07/01 09:06:26;;;;;;;17.10;6.95;;;15.70;99.90;;;;;;5023341;28;20098;-64
2021/07/01 09:08:53;;;;;;;16.65;7.55;;;15.80;99.90;;;;;;5022258;28;20514;-63
2021/07/01 09:11:20;;;;;;;18.77;6.68;;;15.90;99.90;;;;;;5015960;28;20057;-65
2021/07/01 09:13:48;;;;;;;14.93;7.22;;;15.90;99.90;;;;;;5016040;28;20036;-65
2021/07/01 09:16:18;;;;;;;20.48;7.80;;;15.90;99.90;;;;;;5028479;28;20026;-65
2021/07/01 09:18:45;;;;;;;14.52;7.53;;;15.80;99.90;;;;;;5027466;28;20026;-65
2021/07/01 09:21:14;;;;;;;15.10;8.43;;;15.70;99.90;;;;;;5021027;28;20026;-65
2021/07/01 09:23:45;;;;;;;17.13;7.85;;;15.80;99.90;;;;;;5027628;28;20486;-65
2021/07/01 09:26:20;;;;;;;16.48;7.60;;;15.80;99.90;;;;;;5014046;28;20065;-65
2021/07/01 09:28:47;;;;;;;19.48;7.30;;;15.70;99.90;;;;;;5021147;28;20582;-64
2021/07/01 09:31:16;;;;;;;15.57;7.43;;;15.60;99.90;;;;;;5007782;28;20056;-65
2021/07/01 09:33:44;;;;;;;13.75;6.40;;;15.80;99.90;;;;;;5031872;28;20068;-62
2021/07/01 09:36:10;;;;;;;19.35;8.27;;;15.90;99.90;;;;;;5023838;28;20083;-64
2021/07/01 09:38:36;;;;;;;13.45;7.00;;;15.90;99.90;;;;;;5029821;28;20029;-64
2021/07/01 09:41:01;;;;;;;11.00;6.63;;;15.90;99.90;;;;;;5023169;28;20336;-63
2021/07/01 09:43:27;;;;;;;15.40;7.93;;;15.90;99.90;;;;;;5031882;28;20033;-64
2021/07/01 09:45:56;;;;;;;13.93;7.30;;;15.80;99.90;;;;;;5026264;28;20034;-64
2021/07/01 09:48:28;;;;;;;11.80;6.38;;;15.80;99.90;;;;;;5025926;28;20026;-65
2021/07/01 09:50:56;;;;;;;12.98;6.90;;;15.90;99.90;;;;;;5037447;28;20025;-63
2021/07/01 09:53:33;;;;;;;15.98;7.97;;;16.00;99.90;;;;;;5021031;28;20030;-64
2021/07/01 09:56:10;;;;;;;12.60;6.22;;;15.90;99.90;;;;;;5033964;28;20018;-64
2021/07/01 09:58:42;;;;;;;15.68;7.05;;;15.80;99.90;;;;;;5028337;28;20537;-63
2021/07/01 10:01:22;;;;;;;14.60;7.38;;;15.70;99.90;;;;;;5033486;28;20382;-64
2021/07/01 10:03:55;;;;;;;9.73;7.15;;;15.70;99.90;;;;;;5026662;28;20021;-64
2021/07/01 10:06:21;;;;;;;;;;;15.50;99.90;;;;;;5035839;28;20036;-64
2021/07/01 10:08:47;;;;;;;21.05;7.72;;;15.50;99.90;;;;;;5021395;28;19909;-64
2021/07/01 10:11:14;;;;;;;16.48;8.68;;;15.40;99.90;;;;;;5009440;28;20486;-63
2021/07/01 10:13:50;;;;;;;19.23;9.05;;;15.30;99.90;;;;;;5034789;28;20028;-62
2021/07/01 10:16:21;;;;;;;18.17;8.52;;;15.20;99.90;;;;;;5038520;28;20026;-64
2021/07/01 10:18:48;;;;;;;15.20;8.52;;;15.10;99.90;;;;;;5034677;28;20030;-64
2021/07/01 10:21:15;;;;;;;17.40;8.77;;;15.00;99.90;;;;;;5032867;28;20121;-64
2021/07/01 10:23:41;;;;;;;21.23;10.00;;;15.10;99.90;;;;;;5037705;28;20019;-63
2021/07/01 10:26:11;;;;;;;17.73;9.57;;;15.10;99.90;;;;;;5031830;28;20030;-63
2021/07/01 10:28:37;;;;;;;15.30;8.35;;;15.20;99.90;;;;;;5028362;28;20033;-63
2021/07/01 10:31:10;;;;;;;16.58;9.27;;;15.40;99.90;;;;;;4990743;28;20410;-64
2021/07/01 10:33:38;;;;;;;14.65;9.15;;;15.40;99.90;;;;;;5029098;28;20658;-63
2021/07/01 10:36:05;;;;;;;14.65;9.40;;;15.50;99.90;;;;;;5028684;28;20033;-62
2021/07/01 10:38:44;;;;;;;19.67;11.00;;;15.60;99.90;;;;;;5028546;28;20048;-64
2021/07/01 10:41:11;;;;;;;20.08;10.02;;;15.50;99.90;;;;;;5026676;28;20080;-64
2021/07/01 10:43:47;;;;;;;19.25;10.90;;;15.30;99.90;;;;;;5027361;28;20105;-63
2021/07/01 10:46:13;;;;;;;15.98;10.25;;;15.30;99.90;;;;;;5027626;28;20025;-63
2021/07/01 10:48:39;;;;;;;21.95;10.68;;;15.10;99.90;;;;;;5030210;28;20080;-64
2021/07/01 10:51:09;;;;;;;14.25;9.23;;;15.20;99.90;;;;;;5029238;28;20116;-64
2021/07/01 10:53:37;;;;;;;12.90;9.10;;;15.20;99.90;;;;;;5038410;28;20430;-60
2021/07/01 10:56:04;;;;;;;31.20;8.68;;;15.20;99.90;;;;;;5037971;28;20120;-62
2021/07/01 10:58:31;;;;;;;16.45;8.82;;;15.20;99.90;;;;;;5033343;28;20045;-64
2021/07/01 11:00:58;;;;;;;20.20;8.98;;;15.30;99.90;;;;;;5034750;28;20087;-62
2021/07/01 11:03:26;;;;;;;17.65;8.52;;;15.30;99.90;;;;;;5028085;28;20017;-64
2021/07/01 11:05:53;;;;;;;12.02;8.73;;;15.30;99.90;;;;;;5032981;28;20083;-64
2021/07/01 11:08:25;;;;;;;15.40;8.77;;;15.30;99.90;;;;;;5038136;28;20030;-64
2021/07/01 11:10:52;;;;;;;15.37;8.30;;;15.30;99.90;;;;;;5032961;28;20053;-64
2021/07/01 11:13:18;;;;;;;17.30;9.55;;;15.30;99.90;;;;;;5030246;28;20053;-63
2021/07/01 11:16:16;;;;;;;21.27;11.60;;;15.20;99.90;;;;;;5032772;28;20024;-64
2021/07/01 11:18:44;;;;;;;15.48;10.60;;;15.10;99.90;;;;;;4993138;28;20109;-64
2021/07/01 11:21:20;;;;;;;19.70;11.02;;;15.20;99.90;;;;;;5013098;28;20100;-65
2021/07/01 11:23:49;;;;;;;21.98;10.30;;;15.40;99.90;;;;;;5026798;28;20829;-64
2021/07/01 11:26:28;;;;;;;20.30;10.75;;;15.50;99.90;;;;;;5027875;28;20026;-63
2021/07/01 11:28:54;;;;;;;16.77;10.02;;;15.50;99.90;;;;;;5031136;28;20033;-63
2021/07/01 11:31:39;;;;;;;20.70;10.95;;;15.60;99.90;;;;;;5025276;28;20828;-64
2021/07/01 11:34:06;;;;;;;14.35;9.45;;;15.50;99.90;;;;;;5032750;28;20037;-64
2021/07/01 11:36:32;;;;;;;20.15;10.15;;;15.30;99.90;;;;;;5028073;28;20053;-64
2021/07/01 11:39:13;;;;;;;19.55;10.43;;;15.20;99.90;;;;;;5029717;28;20075;-64
2021/07/01 11:41:41;;;;;;;16.95;9.95;;;15.20;99.90;;;;;;5020766;28;20030;-64
2021/07/01 11:44:10;;;;;;;22.75;9.77;;;15.10;99.90;;;;;;5029401;28;20022;-64
2021/07/01 11:46:36;;;;;;;16.00;9.50;;;15.00;99.90;;;;;;5031418;28;20145;-64
2021/07/01 11:49:06;;;;;;;18.00;10.05;;;15.10;99.90;;;;;;5027476;28;20036;-64
2021/07/01 11:51:33;;;;;;;19.80;10.23;;;15.20;99.90;;;;;;5008496;28;20038;-59
2021/07/01 11:53:59;;;;;;;18.65;10.77;;;15.30;99.90;;;;;;5009452;28;20033;-63
2021/07/01 11:56:25;;;;;;;14.45;9.25;;;15.40;99.90;;;;;;5030794;28;20075;-64
2021/07/01 11:58:51;;;;;;;17.92;10.25;;;15.70;99.90;;;;;;5026137;28;20018;-64
2021/07/01 12:01:18;;;;;;;16.55;8.82;;;15.90;99.90;;;;;;5026401;28;20026;-63
2021/07/01 12:03:48;;;;;;;12.60;7.82;;;16.10;99.90;;;;;;5025319;28;20553;-63
2021/07/01 12:06:26;;;;;;;18.92;8.93;;;16.30;99.90;;;;;;5030839;28;20029;-64
2021/07/01 12:08:52;;;;;;;15.38;7.80;;;16.30;99.90;;;;;;5030196;28;20114;-64
2021/07/01 12:11:17;;;;;;;15.00;8.00;;;16.30;99.90;;;;;;5018876;28;20494;-64
2021/07/01 12:13:45;;;;;;;15.05;8.25;;;16.40;99.90;;;;;;5015945;28;20375;-64
2021/07/01 12:16:15;;;;;;;14.27;7.53;;;16.40;99.90;;;;;;5037020;28;20024;-63
2021/07/01 12:18:45;;;;;;;14.13;7.75;;;16.30;99.90;;;;;;5008892;28;20049;-63
2021/07/01 12:21:16;;;;;;;11.25;6.63;;;16.30;99.90;;;;;;5035253;28;20032;-64
2021/07/01 12:23:47;;;;;;;14.35;7.75;;;16.20;99.90;;;;;;5036360;28;20024;-64
2021/07/01 12:26:36;;;;;;;14.35;7.13;;;16.00;99.90;;;;;;5031299;28;20025;-63
2021/07/01 12:29:27;;;;;;;15.52;8.23;;;16.00;99.90;;;;;;5036150;28;20052;-60
2021/07/01 12:31:54;;;;;;;17.45;8.05;;;15.90;99.90;;;;;;5020283;28;20052;-64
2021/07/01 12:34:21;;;;;;;12.82;7.32;;;15.60;99.90;;;;;;5032137;28;20021;-63